Dong Fang You 2 — BXEC — position and weather

sailwx.info

Track history (hours):
 
Tides and Currents Weather Stations Pressure Air Temp Water Temp Dewpoint Dewpoint Depression Visibility Wind Speed Wind Dir Waves Ship Positions

Dong Fang You 2

Last reported at 2014-Aug-31 20:12 UTC. Time now 2014-Sep-01 11:12 UTC.
Position N 20°10' E 110°19'.

Length 82 m; draft 4.6 m.

Type: Tanker. MMSI: 412464680.

Date/timePositionNaut miles runAvg speedWind from/ knotsBaromVisibWave heightAir tempDewpointWater temp
2014-Aug-31 20:12N 20°10' E 110°19'5 6.5
2014-Aug-31 19:30N 20°10' E 110°14'2 0.0
2014-Aug-29 16:30N 20°11' E 110°15'  
2014-Aug-23 02:24N 21°41' E 113°03'8 8.6
2014-Aug-23 01:27N 21°45' E 113°10'28 8.3
2014-Aug-22 22:06N 22°01' E 113°35'6 7.7
2014-Aug-22 21:18N 22°06' E 113°39'7 7.4
2014-Aug-22 20:24N 22°12' E 113°43'7 7.5
2014-Aug-22 19:30N 22°16' E 113°48'39 7.9
2014-Aug-22 14:33N 22°53' E 113°34'2 1.9
2014-Aug-22 13:21N 22°56' E 113°34'0 0.0
2014-Aug-22 12:27N 22°56' E 113°34'0 0.0
2014-Aug-22 11:03N 22°56' E 113°34'0 0.0
2014-Aug-22 09:33N 22°56' E 113°34'0 0.0
2014-Aug-22 07:09N 22°56' E 113°34'0 0.0
2014-Aug-22 04:33N 22°56' E 113°34'3 1.3
2014-Aug-22 02:21N 22°53' E 113°34'2 2.1
2014-Aug-22 01:27N 22°51' E 113°34'0 0.0
2014-Aug-22 00:09N 22°51' E 113°34'0 0.0
2014-Aug-21 22:21N 22°51' E 113°34'0 0.0
2014-Aug-21 21:27N 22°51' E 113°34'  
Track history (hours):
 
Tides and Currents Weather Stations Pressure Air Temp Water Temp Dewpoint Dewpoint Depression Visibility Wind Speed Wind Dir Waves Ship Positions

Dong Fang You 2

Last reported at 2014-Aug-31 20:12 UTC. Time now 2014-Sep-01 11:12 UTC.
Position N 20°10' E 110°19'.

Length 82 m; draft 4.6 m.

Type: Tanker. MMSI: 412464680.

Date/timePositionNaut miles runAvg speedWind from/ knotsBaromVisibWave heightAir tempDewpointWater temp
2014-Aug-31 20:12N 20°10' E 110°19'5 6.5
2014-Aug-31 19:30N 20°10' E 110°14'2 0.0
2014-Aug-29 16:30N 20°11' E 110°15'  
2014-Aug-23 02:24N 21°41' E 113°03'8 8.6
2014-Aug-23 01:27N 21°45' E 113°10'28 8.3
2014-Aug-22 22:06N 22°01' E 113°35'6 7.7
2014-Aug-22 21:18N 22°06' E 113°39'7 7.4
2014-Aug-22 20:24N 22°12' E 113°43'7 7.5
2014-Aug-22 19:30N 22°16' E 113°48'39 7.9
2014-Aug-22 14:33N 22°53' E 113°34'2 1.9
2014-Aug-22 13:21N 22°56' E 113°34'0 0.0
2014-Aug-22 12:27N 22°56' E 113°34'0 0.0
2014-Aug-22 11:03N 22°56' E 113°34'0 0.0
2014-Aug-22 09:33N 22°56' E 113°34'0 0.0
2014-Aug-22 07:09N 22°56' E 113°34'0 0.0
2014-Aug-22 04:33N 22°56' E 113°34'3 1.3
2014-Aug-22 02:21N 22°53' E 113°34'2 2.1
2014-Aug-22 01:27N 22°51' E 113°34'0 0.0
2014-Aug-22 00:09N 22°51' E 113°34'0 0.0
2014-Aug-21 22:21N 22°51' E 113°34'0 0.0
2014-Aug-21 21:27N 22°51' E 113°34'  

Dump ship's entire track history